Time;durP1;ratioP1;P1;durP2;ratioP2;P2;SDS_P1;SDS_P2;PMS_P1;PMS_P2;Temp;Humidity;BMP_temperature;BMP_pressure;BME280_temperature;BME280_humidity;BME280_pressure;Samples;Min_cycle;Max_cycle;Signal;HPM_P1;HPM_P2
2022/08/07 00:01:11;;;;;;;8.45;4.45;;;9.00;99.90;;;;;;5008318;28;20718;-35
2022/08/07 00:03:37;;;;;;;7.22;4.43;;;8.80;99.90;;;;;;5008352;28;20053;-36
2022/08/07 00:06:04;;;;;;;8.60;4.75;;;8.70;99.90;;;;;;5008820;28;20397;-36
2022/08/07 00:08:30;;;;;;;6.90;4.45;;;8.70;99.90;;;;;;5008354;28;20589;-36
2022/08/07 00:10:56;;;;;;;7.35;4.63;;;8.60;99.90;;;;;;5008408;28;20038;-36
2022/08/07 00:13:22;;;;;;;5.55;3.85;;;8.60;99.90;;;;;;5008195;28;20042;-36
2022/08/07 00:15:50;;;;;;;5.25;3.50;;;9.10;99.90;;;;;;5008098;28;20177;-36
2022/08/07 00:18:19;;;;;;;4.60;3.35;;;8.60;99.90;;;;;;5008375;28;20057;-36
2022/08/07 00:20:44;;;;;;;4.30;1.80;;;8.60;99.90;;;;;;5008066;28;20377;-36
2022/08/07 00:23:10;;;;;;;4.05;2.97;;;8.60;99.90;;;;;;5006590;28;20060;-36
2022/08/07 00:25:36;;;;;;;4.95;2.85;;;8.60;99.90;;;;;;5007645;28;20038;-36
2022/08/07 00:28:02;;;;;;;5.70;2.97;;;8.50;99.90;;;;;;5008142;28;20045;-36
2022/08/07 00:30:28;;;;;;;5.78;3.10;;;8.50;99.90;;;;;;5008342;28;20033;-36
2022/08/07 00:32:58;;;;;;;5.35;2.30;;;8.50;99.90;;;;;;5008164;28;20135;-36
2022/08/07 00:35:25;;;;;;;5.57;2.40;;;9.30;99.90;;;;;;5007429;28;20077;-36
2022/08/07 00:37:51;;;;;;;5.18;2.50;;;8.50;99.90;;;;;;5007768;28;20495;-36
2022/08/07 00:40:17;;;;;;;6.85;4.03;;;8.50;99.90;;;;;;5007412;28;20041;-36
2022/08/07 00:42:43;;;;;;;6.28;3.17;;;8.50;99.90;;;;;;5007582;28;20045;-35
2022/08/07 00:45:10;;;;;;;7.70;3.65;;;8.50;99.90;;;;;;5007223;28;20519;-36
2022/08/07 00:47:36;;;;;;;7.00;3.15;;;8.40;99.90;;;;;;5007494;28;20089;-36
2022/08/07 00:50:03;;;;;;;5.65;3.22;;;8.40;99.90;;;;;;5007579;28;20041;-36
2022/08/07 00:52:29;;;;;;;6.63;3.38;;;8.40;99.90;;;;;;5007395;28;20042;-36
2022/08/07 00:54:55;;;;;;;4.35;2.88;;;8.30;99.90;;;;;;5007557;28;20042;-36
2022/08/07 00:57:24;;;;;;;6.90;3.03;;;8.30;99.90;;;;;;5006618;28;20050;-35
2022/08/07 00:59:50;;;;;;;7.05;3.78;;;8.30;99.90;;;;;;5006866;28;20492;-35
2022/08/07 01:02:17;;;;;;;5.43;2.83;;;8.30;99.90;;;;;;5007265;28;20046;-36
2022/08/07 01:04:43;;;;;;;5.32;3.10;;;9.10;99.90;;;;;;5006795;28;20077;-36
2022/08/07 01:07:09;;;;;;;6.38;4.22;;;8.30;99.90;;;;;;5007131;28;20488;-36
2022/08/07 01:09:35;;;;;;;9.27;4.20;;;8.20;99.90;;;;;;5006790;28;20571;-36
2022/08/07 01:12:01;;;;;;;7.20;4.30;;;8.20;99.90;;;;;;5007831;28;20049;-36
2022/08/07 01:14:27;;;;;;;6.78;4.15;;;8.20;99.90;;;;;;5007008;28;20133;-36
2022/08/07 01:16:54;;;;;;;6.50;3.78;;;8.20;99.90;;;;;;5006520;28;20069;-36
2022/08/07 01:19:21;;;;;;;7.50;3.95;;;8.10;99.90;;;;;;5007145;28;20442;-36
2022/08/07 01:21:49;;;;;;;8.10;3.80;;;8.60;99.90;;;;;;5006771;28;20459;-36
2022/08/07 01:24:17;;;;;;;7.47;4.07;;;8.10;99.90;;;;;;5006801;28;20045;-36
2022/08/07 01:26:42;;;;;;;6.35;3.97;;;8.10;99.90;;;;;;5006559;28;20152;-36
2022/08/07 01:29:09;;;;;;;9.35;5.13;;;8.10;99.90;;;;;;5006655;28;20555;-36
2022/08/07 01:31:36;;;;;;;9.30;4.30;;;8.10;99.90;;;;;;5006184;28;20385;-35
2022/08/07 01:34:04;;;;;;;9.07;4.70;;;8.10;99.90;;;;;;5006503;28;20072;-36
2022/08/07 01:36:30;;;;;;;9.45;4.85;;;8.10;99.90;;;;;;5006171;28;20042;-36
2022/08/07 01:38:57;;;;;;;7.28;4.22;;;8.00;99.90;;;;;;5006827;28;20037;-36
2022/08/07 01:41:23;;;;;;;8.05;4.25;;;8.20;99.90;;;;;;5007116;28;20041;-35
2022/08/07 01:43:50;;;;;;;8.40;4.78;;;8.00;99.90;;;;;;5007045;28;20050;-36
2022/08/07 01:46:18;;;;;;;10.30;5.85;;;8.10;99.90;;;;;;5006656;28;20049;-35
2022/08/07 01:48:45;;;;;;;8.23;5.25;;;8.00;99.90;;;;;;5006416;28;20038;-36
2022/08/07 01:51:15;;;;;;;10.32;5.78;;;8.00;99.90;;;;;;5006941;28;20050;-36
2022/08/07 01:53:45;;;;;;;9.38;5.72;;;8.00;99.90;;;;;;5006722;28;20050;-36
2022/08/07 01:56:23;;;;;;;10.40;5.88;;;8.50;99.90;;;;;;5006648;28;20042;-36
2022/08/07 01:59:05;;;;;;;10.65;5.85;;;8.70;99.90;;;;;;5006228;28;20046;-36
2022/08/07 02:01:46;;;;;;;7.07;5.13;;;8.00;99.90;;;;;;5006093;28;20615;-36
2022/08/07 02:04:25;;;;;;;6.38;3.33;;;8.00;99.90;;;;;;5006954;28;20053;-35
2022/08/07 02:06:55;;;;;;;4.30;2.55;;;8.00;99.90;;;;;;5006587;28;20042;-36
2022/08/07 02:09:22;;;;;;;4.18;2.38;;;8.30;99.90;;;;;;5008448;28;20042;-36
2022/08/07 02:11:50;;;;;;;5.50;2.90;;;8.00;99.90;;;;;;5010639;28;20138;-36
2022/08/07 02:14:17;;;;;;;6.28;3.72;;;8.00;99.90;;;;;;5010626;28;20488;-36
2022/08/07 02:16:46;;;;;;;7.45;4.38;;;8.00;99.90;;;;;;5010582;28;20183;-36
2022/08/07 02:19:13;;;;;;;7.15;4.10;;;8.00;99.90;;;;;;5010610;28;20073;-36
2022/08/07 02:21:40;;;;;;;4.78;2.83;;;7.90;99.90;;;;;;5011113;28;20042;-36
2022/08/07 02:24:07;;;;;;;5.00;2.65;;;8.50;99.90;;;;;;5010839;28;20099;-35
2022/08/07 02:26:36;;;;;;;5.97;3.15;;;7.90;99.90;;;;;;5010294;28;20046;-36
2022/08/07 02:29:04;;;;;;;3.50;1.95;;;8.00;99.90;;;;;;5010147;28;20046;-35
2022/08/07 02:31:31;;;;;;;5.35;2.28;;;7.80;99.90;;;;;;5010006;28;20115;-36
2022/08/07 02:34:00;;;;;;;4.45;2.40;;;7.70;99.90;;;;;;5010056;28;20045;-36
2022/08/07 02:36:27;;;;;;;6.28;3.38;;;8.30;99.90;;;;;;5010316;28;20046;-35
2022/08/07 02:38:55;;;;;;;6.22;3.40;;;7.60;99.90;;;;;;5010196;28;20332;-35
2022/08/07 02:41:22;;;;;;;7.93;4.65;;;7.60;99.90;;;;;;5009995;28;20132;-35
2022/08/07 02:43:49;;;;;;;7.85;4.07;;;7.50;99.90;;;;;;5009803;28;20038;-36
2022/08/07 02:46:18;;;;;;;7.60;4.22;;;7.50;99.90;;;;;;5010394;28;20052;-35
2022/08/07 02:48:44;;;;;;;8.57;4.65;;;7.50;99.90;;;;;;5010125;28;20064;-36
2022/08/07 02:51:13;;;;;;;6.63;4.30;;;7.70;99.90;;;;;;5010444;28;20507;-36
2022/08/07 02:53:42;;;;;;;8.27;4.53;;;7.40;99.90;;;;;;5010278;28;20041;-35
2022/08/07 02:56:13;;;;;;;6.68;4.32;;;7.40;99.90;;;;;;5009704;28;20483;-36
2022/08/07 02:58:41;;;;;;;7.13;4.07;;;7.40;99.90;;;;;;5009417;28;20045;-35
2022/08/07 03:01:10;;;;;;;7.07;3.65;;;7.40;99.90;;;;;;5009658;28;20045;-35
2022/08/07 03:03:36;;;;;;;11.13;5.45;;;7.40;99.90;;;;;;5009857;28;20050;-35
2022/08/07 03:06:03;;;;;;;9.07;5.28;;;7.40;99.90;;;;;;5009419;28;20045;-36
2022/08/07 03:08:29;;;;;;;8.82;5.35;;;7.40;99.90;;;;;;5009536;28;20041;-35
2022/08/07 03:10:56;;;;;;;12.27;6.35;;;7.40;99.90;;;;;;5009038;28;20045;-35
2022/08/07 03:13:22;;;;;;;13.43;6.90;;;7.40;99.90;;;;;;5009533;28;20108;-35
2022/08/07 03:15:48;;;;;;;10.35;6.75;;;7.50;99.90;;;;;;5009184;28;20137;-36
2022/08/07 03:18:15;;;;;;;7.70;5.07;;;7.60;99.90;;;;;;5009788;28;20053;-36
2022/08/07 03:20:41;;;;;;;9.68;4.82;;;7.50;99.90;;;;;;5008496;28;20096;-36
2022/08/07 03:23:08;;;;;;;7.78;3.53;;;7.50;99.90;;;;;;5009269;28;20077;-36
2022/08/07 03:25:37;;;;;;;4.57;2.33;;;7.50;99.90;;;;;;5009012;28;20053;-36
2022/08/07 03:28:03;;;;;;;2.85;0.93;;;7.50;99.90;;;;;;5008642;28;20045;-35
2022/08/07 03:30:31;;;;;;;3.28;1.50;;;7.50;99.90;;;;;;5008968;28;20077;-35
2022/08/07 03:32:59;;;;;;;3.75;2.30;;;7.50;99.90;;;;;;5008440;28;20049;-35
2022/08/07 03:35:28;;;;;;;5.00;2.70;;;7.50;99.90;;;;;;5008835;28;20049;-35
2022/08/07 03:38:00;;;;;;;7.00;4.50;;;7.40;99.90;;;;;;5008381;28;20456;-35
2022/08/07 03:40:27;;;;;;;10.85;5.05;;;7.40;99.90;;;;;;5009034;28;20451;-35
2022/08/07 03:42:54;;;;;;;12.95;6.30;;;8.20;99.90;;;;;;5008453;28;20119;-36
2022/08/07 03:45:22;;;;;;;11.23;5.25;;;7.40;99.90;;;;;;5008891;28;20041;-35
2022/08/07 03:47:48;;;;;;;15.23;5.80;;;7.40;99.90;;;;;;5008572;28;20074;-36
2022/08/07 03:50:16;;;;;;;10.75;5.45;;;7.40;99.90;;;;;;5008482;28;20671;-35
2022/08/07 03:52:43;;;;;;;7.82;4.72;;;7.30;99.90;;;;;;5008628;28;20042;-36
2022/08/07 03:55:09;;;;;;;6.50;4.10;;;7.30;99.90;;;;;;5008267;28;20089;-36
2022/08/07 03:57:35;;;;;;;5.95;2.75;;;7.30;99.90;;;;;;5008411;28;20569;-35
2022/08/07 04:00:01;;;;;;;6.00;3.00;;;7.20;99.90;;;;;;5008049;28;20121;-36
2022/08/07 04:02:27;;;;;;;7.07;3.78;;;7.70;99.90;;;;;;5008100;28;20046;-35
2022/08/07 04:04:53;;;;;;;9.68;5.55;;;7.20;99.90;;;;;;5008208;28;20042;-36
2022/08/07 04:07:19;;;;;;;8.35;4.65;;;7.20;99.90;;;;;;5008148;28;20403;-35
2022/08/07 04:09:46;;;;;;;6.82;4.50;;;7.20;99.90;;;;;;5008622;28;20037;-36
2022/08/07 04:12:13;;;;;;;9.52;5.38;;;7.30;99.90;;;;;;5008429;28;20100;-36
2022/08/07 04:14:39;;;;;;;12.95;5.80;;;7.30;99.90;;;;;;5008544;28;20056;-35
2022/08/07 04:17:06;;;;;;;8.55;5.28;;;7.30;99.90;;;;;;5007888;28;20111;-35
2022/08/07 04:19:31;;;;;;;11.55;6.63;;;7.30;99.90;;;;;;5007987;28;20046;-36
2022/08/07 04:21:57;;;;;;;13.73;7.90;;;7.40;99.90;;;;;;5007198;28;20492;-36
2022/08/07 04:24:23;;;;;;;13.30;8.20;;;7.50;99.90;;;;;;5007968;28;20083;-36
2022/08/07 04:26:49;;;;;;;9.60;6.20;;;7.60;99.90;;;;;;5007774;28;20132;-36
2022/08/07 04:29:14;;;;;;;12.82;7.63;;;7.60;99.90;;;;;;5007851;28;20452;-35
2022/08/07 04:31:40;;;;;;;11.65;7.25;;;7.80;99.90;;;;;;5007134;28;20101;-36
2022/08/07 04:34:07;;;;;;;17.23;8.48;;;7.90;99.90;;;;;;5007425;28;20042;-36
2022/08/07 04:36:34;;;;;;;12.90;7.32;;;8.00;99.90;;;;;;5007406;28;20057;-35
2022/08/07 04:39:01;;;;;;;14.52;7.45;;;8.10;99.90;;;;;;5007266;28;20216;-36
2022/08/07 04:41:27;;;;;;;13.35;6.90;;;8.60;99.90;;;;;;5007131;28;20689;-36
2022/08/07 04:43:54;;;;;;;17.85;7.90;;;8.20;99.90;;;;;;5007299;28;20578;-35
2022/08/07 04:46:27;;;;;;;12.73;7.38;;;8.20;99.90;;;;;;5007663;28;20258;-36
2022/08/07 04:49:34;;;;;;;14.75;8.18;;;8.20;99.90;;;;;;5007748;28;20046;-36
2022/08/07 04:52:08;;;;;;;14.00;7.85;;;8.20;99.90;;;;;;4984959;28;20046;-36
2022/08/07 04:54:57;;;;;;;12.00;7.32;;;8.30;99.90;;;;;;5004112;28;20502;-36
2022/08/07 04:57:45;;;;;;;13.55;7.85;;;8.30;99.90;;;;;;5007912;28;20399;-36
2022/08/07 05:00:16;;;;;;;15.27;9.15;;;8.40;99.90;;;;;;5007809;28;20057;-36
2022/08/07 05:02:57;;;;;;;14.95;7.97;;;8.40;99.90;;;;;;5007861;28;20041;-36
2022/08/07 05:05:32;;;;;;;13.35;8.20;;;8.50;99.90;;;;;;5007849;28;20046;-36
2022/08/07 05:08:06;;;;;;;14.20;7.80;;;8.60;99.90;;;;;;5007059;28;20041;-36
2022/08/07 05:10:40;;;;;;;12.88;7.95;;;8.70;99.90;;;;;;5006940;28;20132;-36
2022/08/07 05:13:08;;;;;;;10.93;6.85;;;8.80;99.90;;;;;;5006798;28;20054;-36
2022/08/07 05:15:37;;;;;;;12.95;6.88;;;9.00;99.90;;;;;;5006633;28;20139;-36
2022/08/07 05:18:12;;;;;;;11.70;7.68;;;9.10;99.90;;;;;;5006422;28;20500;-36
2022/08/07 05:20:40;;;;;;;11.15;7.10;;;9.30;99.90;;;;;;5007185;28;20060;-36
2022/08/07 05:23:11;;;;;;;11.52;7.25;;;10.10;99.90;;;;;;5006662;28;20050;-36
2022/08/07 05:25:40;;;;;;;12.52;7.68;;;10.30;99.90;;;;;;5006935;28;20042;-36
2022/08/07 05:28:08;;;;;;;13.82;8.20;;;9.80;99.90;;;;;;5006812;28;20100;-36
2022/08/07 05:30:35;;;;;;;10.40;7.38;;;10.10;99.90;;;;;;5007003;28;20117;-36
2022/08/07 05:33:02;;;;;;;11.60;7.45;;;10.30;99.90;;;;;;5006572;28;20067;-36
2022/08/07 05:35:30;;;;;;;10.93;7.25;;;10.70;99.90;;;;;;5006877;28;20385;-36
2022/08/07 05:37:56;;;;;;;10.65;6.57;;;12.00;99.90;;;;;;5006869;28;20121;-36
2022/08/07 05:40:22;;;;;;;9.38;6.68;;;13.00;99.90;;;;;;5006354;28;20054;-36
2022/08/07 05:42:48;;;;;;;10.40;7.13;;;12.70;99.90;;;;;;5006366;28;20050;-36
2022/08/07 05:45:15;;;;;;;12.35;8.00;;;13.00;99.90;;;;;;5006511;28;20455;-36
2022/08/07 05:47:41;;;;;;;9.63;7.63;;;13.00;99.90;;;;;;5006474;28;20041;-36
2022/08/07 05:50:07;;;;;;;11.13;7.43;;;13.10;99.90;;;;;;5006660;28;20379;-36
2022/08/07 05:52:33;;;;;;;11.43;7.97;;;13.50;99.90;;;;;;5006903;28;20112;-36
2022/08/07 05:55:00;;;;;;;12.63;8.35;;;14.00;99.90;;;;;;5006927;28;20747;-36
2022/08/07 05:57:27;;;;;;;11.70;7.75;;;15.00;99.90;;;;;;5006705;28;20107;-36
2022/08/07 05:59:54;;;;;;;12.23;8.40;;;16.80;99.90;;;;;;5006723;28;20053;-36
2022/08/07 06:02:21;;;;;;;10.15;8.02;;;18.20;99.90;;;;;;5005964;28;20511;-36
2022/08/07 06:04:52;;;;;;;10.07;8.25;;;17.40;99.90;;;;;;5006655;28;20042;-36
2022/08/07 06:07:18;;;;;;;11.63;8.25;;;16.90;99.90;;;;;;5006286;28;20057;-36
2022/08/07 06:09:44;;;;;;;10.60;7.55;;;16.60;99.90;;;;;;5006220;28;20399;-36
2022/08/07 06:12:10;;;;;;;11.38;8.13;;;16.50;99.90;;;;;;5006172;28;20046;-36
2022/08/07 06:14:36;;;;;;;9.32;7.65;;;16.60;99.90;;;;;;5006313;28;20484;-36
2022/08/07 06:17:04;;;;;;;9.48;7.88;;;17.10;99.90;;;;;;5006092;28;20539;-37
2022/08/07 06:19:30;;;;;;;10.82;7.95;;;17.30;99.90;;;;;;5006751;28;20046;-36
2022/08/07 06:21:57;;;;;;;10.82;8.07;;;17.20;99.90;;;;;;5006347;28;20052;-36
2022/08/07 06:24:22;;;;;;;11.52;7.55;;;17.20;99.90;;;;;;5006152;28;20415;-36
2022/08/07 06:26:48;;;;;;;11.65;7.30;;;18.00;99.90;;;;;;5006062;28;20483;-37
2022/08/07 06:29:14;;;;;;;10.25;7.85;;;18.80;99.90;;;;;;5005740;28;20175;-36
2022/08/07 06:31:39;;;;;;;9.77;7.68;;;18.40;99.90;;;;;;5006160;28;20046;-37
2022/08/07 06:34:05;;;;;;;9.35;7.63;;;18.40;99.90;;;;;;5006242;28;20061;-37
2022/08/07 06:36:31;;;;;;;13.13;8.13;;;18.40;99.90;;;;;;5005931;28;20107;-36
2022/08/07 06:38:56;;;;;;;9.88;7.45;;;18.50;99.90;;;;;;5006178;28;20469;-37
2022/08/07 06:41:43;;;;;;;9.77;7.68;;;19.20;99.90;;;;;;5006038;28;20392;-37
2022/08/07 06:44:14;;;;;;;9.20;7.88;;;21.20;97.90;;;;;;5005692;28;20096;-37
2022/08/07 06:46:40;;;;;;;8.23;7.28;;;22.80;94.40;;;;;;5005794;28;20056;-37
2022/08/07 06:49:06;;;;;;;9.18;7.07;;;22.50;93.10;;;;;;5005740;28;20038;-34
2022/08/07 06:51:34;;;;;;;11.68;7.72;;;21.80;93.90;;;;;;5005695;28;20396;-34
2022/08/07 06:54:03;;;;;;;9.68;6.93;;;21.60;95.00;;;;;;5005765;28;20045;-35
2022/08/07 06:56:39;;;;;;;7.53;6.30;;;23.40;92.90;;;;;;5008593;28;20044;-34
2022/08/07 06:59:18;;;;;;;7.75;6.53;;;24.80;88.50;;;;;;5009355;28;20057;-34
2022/08/07 07:01:45;;;;;;;7.07;6.38;;;23.70;86.00;;;;;;5009613;28;20046;-34
2022/08/07 07:04:14;;;;;;;6.57;5.90;;;23.20;89.10;;;;;;5009268;28;20392;-34
2022/08/07 07:06:39;;;;;;;7.35;6.03;;;23.20;88.70;;;;;;5009309;28;20193;-35
2022/08/07 07:09:19;;;;;;;9.63;5.47;;;23.70;87.00;;;;;;5009372;28;20124;-35
2022/08/07 07:12:03;;;;;;;5.82;5.25;;;23.30;85.10;;;;;;5009548;28;20152;-35
2022/08/07 07:14:49;;;;;;;7.30;4.95;;;24.10;84.70;;;;;;5009302;28;20051;-35
2022/08/07 07:17:38;;;;;;;4.97;4.32;;;24.40;81.40;;;;;;5008742;28;20065;-34
2022/08/07 07:20:11;;;;;;;5.15;2.70;;;23.80;81.10;;;;;;5009404;28;20137;-34
2022/08/07 07:22:39;;;;;;;4.75;3.78;;;23.70;79.50;;;;;;5009013;28;20046;-35
2022/08/07 07:25:07;;;;;;;4.55;3.15;;;24.50;76.50;;;;;;5009050;28;20078;-34
2022/08/07 07:27:38;;;;;;;4.20;2.70;;;24.20;75.50;;;;;;5008670;28;20497;-35
2022/08/07 07:30:04;;;;;;;;;;;24.00;86.90;;;;;;5009272;28;20049;-35
2022/08/07 07:32:37;;;;;;;4.25;3.38;;;23.90;78.50;;;;;;5008698;28;19925;-35
2022/08/07 07:35:04;;;;;;;2.92;2.63;;;24.00;80.70;;;;;;5008974;28;20046;-35
2022/08/07 07:37:32;;;;;;;3.25;2.78;;;25.40;77.60;;;;;;5008660;28;20056;-35
2022/08/07 07:40:02;;;;;;;4.10;2.13;;;27.30;71.80;;;;;;5008285;28;20499;-35
2022/08/07 07:42:31;;;;;;;3.33;1.95;;;29.10;66.30;;;;;;5008582;28;20103;-35
2022/08/07 07:44:58;;;;;;;3.70;2.20;;;30.40;62.00;;;;;;5008921;28;20042;-35
2022/08/07 07:47:25;;;;;;;4.05;2.40;;;31.50;59.30;;;;;;5008131;28;20060;-36
2022/08/07 07:49:52;;;;;;;4.78;1.88;;;32.50;57.40;;;;;;5008537;28;20054;-36
2022/08/07 07:52:19;;;;;;;2.08;1.20;;;33.30;55.40;;;;;;5009115;28;20257;-36
2022/08/07 07:54:48;;;;;;;2.15;1.00;;;34.20;54.00;;;;;;5008570;28;20056;-36
2022/08/07 07:57:14;;;;;;;1.80;1.00;;;35.00;51.20;;;;;;5008862;28;20053;-36
2022/08/07 07:59:41;;;;;;;1.92;0.93;;;35.60;51.30;;;;;;5008509;28;20597;-36
2022/08/07 08:02:10;;;;;;;1.58;0.52;;;36.40;49.50;;;;;;5008737;28;20369;-36
2022/08/07 08:04:36;;;;;;;1.38;0.30;;;37.00;48.10;;;;;;5008443;28;20334;-36
2022/08/07 08:07:03;;;;;;;3.17;0.80;;;37.00;46.90;;;;;;5007591;28;20034;-37
2022/08/07 08:09:32;;;;;;;1.50;0.35;;;37.30;44.90;;;;;;5008203;28;20046;-37
2022/08/07 08:12:02;;;;;;;2.40;0.98;;;37.80;44.30;;;;;;5007554;28;20552;-37
2022/08/07 08:14:28;;;;;;;1.92;0.90;;;38.40;43.80;;;;;;5007940;28;20049;-36
2022/08/07 08:16:56;;;;;;;3.60;0.90;;;38.90;43.00;;;;;;5008281;28;20456;-36
2022/08/07 08:19:26;;;;;;;2.00;1.00;;;39.40;47.40;;;;;;5008229;28;20399;-37
2022/08/07 08:27:30;;;;;;;1.38;0.88;;;39.90;50.80;;;;;;5008029;28;20111;-36
2022/08/07 08:30:06;;;;;;;1.20;0.60;;;40.20;52.70;;;;;;5007355;28;20037;-37
2022/08/07 08:32:35;;;;;;;1.10;0.50;;;40.10;40.20;;;;;;5007506;28;20084;-37
2022/08/07 08:35:02;;;;;;;1.65;0.57;;;40.30;40.80;;;;;;5005761;28;20057;-37
2022/08/07 08:37:33;;;;;;;2.15;0.50;;;40.50;39.80;;;;;;5007240;28;20038;-36
2022/08/07 08:40:00;;;;;;;1.30;0.55;;;40.30;39.60;;;;;;5006961;28;20045;-36
2022/08/07 08:42:36;;;;;;;0.63;0.40;;;40.20;40.50;;;;;;5006729;28;20045;-37
2022/08/07 08:45:01;;;;;;;1.20;0.60;;;40.20;40.30;;;;;;5007433;28;20042;-36
2022/08/07 08:47:43;;;;;;;1.33;0.50;;;40.00;40.40;;;;;;5006983;28;20111;-36
2022/08/07 08:50:29;;;;;;;2.75;0.70;;;40.30;39.90;;;;;;5007491;28;20077;-36
2022/08/07 08:53:08;;;;;;;1.20;0.63;;;40.60;39.40;;;;;;5007627;28;20045;-36
2022/08/07 08:55:40;;;;;;;1.52;0.70;;;40.80;38.90;;;;;;5007489;28;20041;-36
2022/08/07 08:58:34;;;;;;;1.80;0.70;;;41.20;38.60;;;;;;5007534;28;20038;-37
2022/08/07 09:01:08;;;;;;;1.20;0.40;;;41.60;39.20;;;;;;5007500;28;20052;-36
2022/08/07 09:03:40;;;;;;;1.23;0.77;;;41.60;40.00;;;;;;5007296;28;20073;-36
2022/08/07 09:06:10;;;;;;;1.67;0.57;;;41.90;45.50;;;;;;5007198;28;20040;-36
2022/08/07 09:08:54;;;;;;;2.78;0.60;;;40.70;35.60;;;;;;5006748;28;20045;-36
2022/08/07 09:11:37;;;;;;;2.03;0.60;;;42.30;37.60;;;;;;5007011;28;20046;-37
2022/08/07 09:14:06;;;;;;;2.97;0.60;;;42.30;38.30;;;;;;5006728;28;20103;-37
2022/08/07 09:16:37;;;;;;;3.00;0.60;;;41.50;37.70;;;;;;5006286;28;20645;-36
2022/08/07 09:19:34;;;;;;;2.15;0.70;;;40.80;37.10;;;;;;5007076;28;20061;-37
2022/08/07 09:22:26;;;;;;;1.25;0.60;;;39.90;37.20;;;;;;5006864;28;20091;-36
2022/08/07 09:25:14;;;;;;;1.20;0.50;;;40.10;40.70;;;;;;5006900;28;20372;-37
2022/08/07 09:28:12;;;;;;;2.67;0.88;;;40.70;39.20;;;;;;5007268;28;20038;-36
2022/08/07 09:30:50;;;;;;;2.15;0.77;;;41.30;39.60;;;;;;5004871;28;20157;-36
2022/08/07 09:33:43;;;;;;;1.60;0.60;;;40.10;37.90;;;;;;5006872;28;20050;-36
2022/08/07 09:36:23;;;;;;;1.88;0.50;;;38.60;39.80;;;;;;5006454;28;20491;-36
2022/08/07 09:39:07;;;;;;;2.05;0.55;;;38.70;40.00;;;;;;5006082;28;20555;-36
2022/08/07 09:42:15;;;;;;;1.92;0.40;;;39.60;40.50;;;;;;5005293;28;20080;-36
2022/08/07 09:44:50;;;;;;;1.80;0.60;;;40.40;40.20;;;;;;5006021;28;20126;-36
2022/08/07 09:47:51;;;;;;;4.30;0.60;;;40.10;38.20;;;;;;5006516;28;20041;-36
2022/08/07 09:50:40;;;;;;;1.13;0.50;;;40.00;37.60;;;;;;4994207;28;20061;-36
2022/08/07 09:53:08;;;;;;;2.95;0.50;;;39.20;38.90;;;;;;5006251;28;20609;-36
2022/08/07 09:56:08;;;;;;;3.85;0.40;;;40.60;37.50;;;;;;5006150;28;20050;-36
2022/08/07 09:58:52;;;;;;;3.53;0.63;;;41.20;38.50;;;;;;5006896;28;20131;-36
2022/08/07 10:01:35;;;;;;;1.42;0.50;;;41.90;38.80;;;;;;5006367;28;20049;-36
2022/08/07 10:04:29;;;;;;;1.20;0.45;;;42.30;39.20;;;;;;5005582;28;20385;-36
2022/08/07 10:07:36;;;;;;;1.35;0.60;;;42.40;39.40;;;;;;5006490;28;20065;-36
2022/08/07 10:10:13;;;;;;;1.30;0.50;;;42.40;37.90;;;;;;4995162;28;20049;-36
2022/08/07 10:13:16;;;;;;;1.42;0.50;;;42.60;36.40;;;;;;5005728;28;20504;-36
2022/08/07 10:15:47;;;;;;;2.60;0.60;;;42.80;37.90;;;;;;5005709;28;20734;-36
2022/08/07 10:18:42;;;;;;;2.25;0.35;;;42.80;37.00;;;;;;5006046;28;20578;-36
2022/08/07 10:21:43;;;;;;;1.70;0.50;;;42.70;38.30;;;;;;5003466;28;20085;-36
2022/08/07 10:24:31;;;;;;;2.42;0.38;;;41.50;37.70;;;;;;5006445;28;20104;-36
2022/08/07 10:27:16;;;;;;;1.70;0.35;;;41.20;37.80;;;;;;5005914;28;20048;-36
2022/08/07 10:29:59;;;;;;;1.15;0.40;;;40.40;38.20;;;;;;5006224;28;20037;-35
2022/08/07 10:33:06;;;;;;;2.53;0.50;;;38.70;39.50;;;;;;5009990;28;20045;-36
2022/08/07 10:36:00;;;;;;;1.77;0.40;;;37.50;39.80;;;;;;5009664;28;20459;-36
2022/08/07 10:38:29;;;;;;;2.42;0.50;;;36.80;41.20;;;;;;5010074;28;20129;-36
2022/08/07 10:41:20;;;;;;;1.45;0.60;;;36.70;40.20;;;;;;5009366;28;20052;-36
2022/08/07 10:43:55;;;;;;;1.00;0.32;;;37.20;40.30;;;;;;5009742;28;20038;-36
2022/08/07 10:46:34;;;;;;;1.38;0.52;;;37.60;39.60;;;;;;5009630;28;20092;-36
2022/08/07 10:49:13;;;;;;;3.20;0.60;;;37.60;38.30;;;;;;5009643;28;20061;-36
2022/08/07 10:51:38;;;;;;;1.88;0.50;;;37.70;39.20;;;;;;5009648;28;20049;-36
2022/08/07 10:54:11;;;;;;;2.53;0.40;;;37.50;39.80;;;;;;5009398;28;20407;-36
2022/08/07 10:57:08;;;;;;;1.67;0.55;;;36.60;40.80;;;;;;5010009;28;20037;-36
2022/08/07 10:59:52;;;;;;;1.25;0.55;;;35.00;41.70;;;;;;5009664;28;20431;-36
2022/08/07 11:02:30;;;;;;;1.58;0.52;;;33.70;43.30;;;;;;5008738;28;20042;-35
2022/08/07 11:05:48;;;;;;;2.10;0.60;;;32.50;43.30;;;;;;5007339;28;20042;-35
2022/08/07 11:08:38;;;;;;;1.63;0.40;;;31.50;45.30;;;;;;4986307;28;20096;-35
2022/08/07 11:11:14;;;;;;;2.33;0.63;;;30.50;44.50;;;;;;4985839;28;20144;-35
2022/08/07 11:13:48;;;;;;;0.90;0.43;;;29.90;45.90;;;;;;5003836;28;20053;-35
2022/08/07 11:16:35;;;;;;;1.73;0.52;;;29.50;47.00;;;;;;5009390;28;20544;-35
2022/08/07 11:19:29;;;;;;;1.42;0.50;;;29.00;49.70;;;;;;5009441;28;20050;-36
2022/08/07 11:22:09;;;;;;;1.02;0.40;;;28.50;50.60;;;;;;5009326;28;20361;-35
2022/08/07 11:25:17;;;;;;;2.40;0.40;;;28.10;48.90;;;;;;5009254;28;20049;-35
2022/08/07 11:27:42;;;;;;;1.10;0.50;;;27.80;50.40;;;;;;5009614;28;20038;-35
2022/08/07 11:30:13;;;;;;;1.10;0.60;;;27.50;50.60;;;;;;5009245;28;20523;-35
2022/08/07 11:33:10;;;;;;;1.03;0.40;;;27.30;50.40;;;;;;5009240;28;20448;-35
2022/08/07 11:35:52;;;;;;;2.17;0.52;;;27.00;48.50;;;;;;5008463;28;20285;-36
2022/08/07 11:38:32;;;;;;;1.85;0.50;;;26.60;50.90;;;;;;5008745;28;20057;-36
2022/08/07 11:41:04;;;;;;;0.82;0.30;;;26.30;52.70;;;;;;5008236;28;20104;-36
2022/08/07 11:43:45;;;;;;;1.13;0.52;;;26.10;54.20;;;;;;5008314;28;20042;-36
2022/08/07 11:46:29;;;;;;;0.70;0.30;;;25.80;55.20;;;;;;5006882;28;20056;-36
2022/08/07 11:49:16;;;;;;;1.77;0.40;;;25.80;54.30;;;;;;5008430;28;20480;-36
2022/08/07 11:52:07;;;;;;;0.70;0.30;;;25.70;55.10;;;;;;5008197;28;20076;-36
2022/08/07 11:54:36;;;;;;;3.53;0.55;;;25.50;55.20;;;;;;5008095;28;20567;-36
2022/08/07 11:57:17;;;;;;;1.35;0.40;;;25.40;54.40;;;;;;5007829;28;20373;-35
2022/08/07 12:00:15;;;;;;;1.48;0.47;;;25.30;54.10;;;;;;5008419;28;20484;-36
2022/08/07 12:02:59;;;;;;;1.15;0.38;;;25.20;57.00;;;;;;5006654;28;20456;-36
2022/08/07 12:05:44;;;;;;;2.17;0.40;;;25.10;55.60;;;;;;5008001;28;20506;-35
2022/08/07 12:08:19;;;;;;;1.58;0.47;;;25.00;59.80;;;;;;5008266;28;20163;-36
2022/08/07 12:11:26;;;;;;;1.88;0.60;;;24.90;55.70;;;;;;5007856;28;20053;-35
2022/08/07 12:14:17;;;;;;;1.88;0.80;;;24.90;54.40;;;;;;5007399;28;20049;-36
2022/08/07 12:16:52;;;;;;;2.75;0.45;;;24.80;53.90;;;;;;5007476;28;20512;-36
2022/08/07 12:19:20;;;;;;;2.92;0.60;;;24.70;54.70;;;;;;5007513;28;20674;-36
2022/08/07 12:22:07;;;;;;;1.67;0.50;;;24.60;54.20;;;;;;5007653;28;20046;-36
2022/08/07 12:27:41;;;;;;;1.00;0.50;;;24.50;55.60;;;;;;5008173;28;20049;-36
2022/08/07 12:30:08;;;;;;;2.42;0.50;;;24.60;54.00;;;;;;5007244;28;20091;-36
2022/08/07 12:32:46;;;;;;;2.08;0.98;;;24.60;54.60;;;;;;5008089;28;20120;-36
2022/08/07 12:35:14;;;;;;;1.48;0.40;;;24.60;56.80;;;;;;5007454;28;20057;-35
2022/08/07 12:37:42;;;;;;;1.17;0.30;;;24.60;55.50;;;;;;5007487;28;20042;-36
2022/08/07 12:40:09;;;;;;;1.52;0.65;;;24.40;56.10;;;;;;5007613;28;20290;-35
2022/08/07 12:42:36;;;;;;;2.42;0.60;;;24.60;57.20;;;;;;5006957;28;20100;-35
2022/08/07 12:45:21;;;;;;;1.25;0.60;;;24.60;58.10;;;;;;5006696;28;20097;-36
2022/08/07 12:48:10;;;;;;;0.98;0.50;;;24.60;57.90;;;;;;5007046;28;20041;-35
2022/08/07 12:50:53;;;;;;;1.35;0.52;;;24.50;56.40;;;;;;5007291;28;20439;-36
2022/08/07 12:53:32;;;;;;;1.35;0.50;;;24.50;57.10;;;;;;5006878;28;20128;-35
2022/08/07 12:56:10;;;;;;;2.10;0.32;;;24.50;57.00;;;;;;5007537;28;20054;-36
2022/08/07 12:58:41;;;;;;;0.95;0.45;;;24.50;56.40;;;;;;5007737;28;20373;-36
2022/08/07 13:01:24;;;;;;;2.35;0.70;;;24.40;56.70;;;;;;5007226;28;20544;-36
2022/08/07 13:04:09;;;;;;;1.23;0.45;;;24.40;57.70;;;;;;5005932;28;20061;-35
2022/08/07 13:07:12;;;;;;;1.70;0.45;;;24.40;56.50;;;;;;5007365;28;20056;-36
2022/08/07 13:10:02;;;;;;;0.60;0.40;;;24.20;53.90;;;;;;5007394;28;20046;-35
2022/08/07 13:12:52;;;;;;;1.05;0.50;;;23.90;55.20;;;;;;5007012;28;20096;-36
2022/08/07 13:15:25;;;;;;;2.65;0.77;;;23.70;57.10;;;;;;5006773;28;20150;-35
2022/08/07 13:18:28;;;;;;;3.20;0.40;;;23.70;57.50;;;;;;5007013;28;20046;-36
2022/08/07 13:21:17;;;;;;;1.77;0.50;;;23.80;56.40;;;;;;5007460;28;20137;-36
2022/08/07 13:23:52;;;;;;;1.15;0.45;;;23.80;57.20;;;;;;5005116;28;20466;-35
2022/08/07 13:26:18;;;;;;;1.10;0.47;;;23.70;56.00;;;;;;5006837;28;20042;-36
2022/08/07 13:29:01;;;;;;;1.90;0.50;;;23.80;56.20;;;;;;5007036;28;20084;-35
2022/08/07 13:31:40;;;;;;;1.33;0.40;;;23.80;57.30;;;;;;5006550;28;20042;-36